Time;durP1;ratioP1;P1;durP2;ratioP2;P2;SDS_P1;SDS_P2;PMS_P1;PMS_P2;Temp;Humidity;BMP_temperature;BMP_pressure;BME280_temperature;BME280_humidity;BME280_pressure;Samples;Min_cycle;Max_cycle;Signal;HPM_P1;HPM_P2
2023/09/08 00:02:00;;;;;;;10.43;8.77;;;19.90;99.90;;;;;;4990929;28;20042;-76
2023/09/08 00:04:26;;;;;;;9.75;8.73;;;19.90;99.90;;;;;;4991733;28;20173;-76
2023/09/08 00:06:51;;;;;;;11.95;9.20;;;19.80;99.90;;;;;;4990520;28;20129;-76
2023/09/08 00:09:17;;;;;;;11.85;9.02;;;19.80;99.90;;;;;;4973187;28;20041;-76
2023/09/08 00:11:42;;;;;;;12.30;9.27;;;19.70;99.90;;;;;;4991255;28;20042;-75
2023/09/08 00:14:08;;;;;;;10.18;8.73;;;19.70;99.90;;;;;;4991608;28;20088;-76
2023/09/08 00:16:33;;;;;;;10.95;9.45;;;19.60;99.90;;;;;;4992592;28;20046;-76
2023/09/08 00:18:59;;;;;;;10.80;9.13;;;19.60;99.90;;;;;;4991612;28;20046;-76
2023/09/08 00:21:25;;;;;;;10.63;8.85;;;19.50;99.90;;;;;;4988181;28;20049;-76
2023/09/08 00:23:52;;;;;;;12.88;8.50;;;19.50;99.90;;;;;;4991458;28;20505;-76
2023/09/08 00:26:18;;;;;;;12.27;9.60;;;19.50;99.90;;;;;;4989513;28;20086;-76
2023/09/08 00:28:43;;;;;;;9.85;8.85;;;19.50;99.90;;;;;;4990777;28;20039;-76
2023/09/08 00:31:09;;;;;;;11.18;8.85;;;19.40;99.90;;;;;;4988794;28;20042;-75
2023/09/08 00:33:34;;;;;;;13.88;9.18;;;19.40;99.90;;;;;;4989317;28;20073;-76
2023/09/08 00:36:00;;;;;;;10.73;9.13;;;19.40;99.90;;;;;;4990867;28;20038;-76
2023/09/08 00:38:26;;;;;;;11.57;9.18;;;19.30;99.90;;;;;;4994114;28;20089;-76
2023/09/08 00:40:51;;;;;;;13.20;8.80;;;19.30;99.90;;;;;;4986839;28;20050;-75
2023/09/08 00:43:17;;;;;;;11.95;9.23;;;19.20;99.90;;;;;;4990039;28;20038;-76
2023/09/08 00:45:44;;;;;;;12.13;8.90;;;19.20;99.90;;;;;;4989359;28;20041;-76
2023/09/08 00:48:10;;;;;;;9.48;8.48;;;19.20;99.90;;;;;;4990998;28;20501;-76
2023/09/08 00:50:36;;;;;;;10.68;9.57;;;19.10;99.90;;;;;;4989929;28;20038;-76
2023/09/08 00:53:04;;;;;;;10.52;9.43;;;19.10;99.90;;;;;;4990298;28;20482;-76
2023/09/08 00:55:30;;;;;;;13.82;9.30;;;19.00;99.90;;;;;;4989606;28;20571;-76
2023/09/08 00:57:56;;;;;;;12.13;8.90;;;19.00;99.90;;;;;;4990189;28;20038;-75
2023/09/08 01:00:21;;;;;;;10.70;8.90;;;18.90;99.90;;;;;;4989117;28;20084;-76
2023/09/08 01:02:47;;;;;;;10.73;9.23;;;18.90;99.90;;;;;;4986439;28;20042;-76
2023/09/08 01:05:14;;;;;;;11.90;8.82;;;18.90;99.90;;;;;;4987866;28;20038;-76
2023/09/08 01:07:40;;;;;;;12.25;9.52;;;18.80;99.90;;;;;;4989321;28;20066;-76
2023/09/08 01:10:06;;;;;;;11.40;9.02;;;18.80;99.90;;;;;;4974481;28;20042;-76
2023/09/08 01:12:34;;;;;;;10.13;9.05;;;18.70;99.90;;;;;;4989941;28;20117;-76
2023/09/08 01:15:00;;;;;;;10.60;9.45;;;18.70;99.90;;;;;;4989344;28;20451;-76
2023/09/08 01:17:26;;;;;;;10.65;9.55;;;18.70;99.90;;;;;;4989370;28;20045;-76
2023/09/08 01:19:55;;;;;;;12.10;9.98;;;18.70;99.90;;;;;;4990231;28;20046;-76
2023/09/08 01:22:50;;;;;;;13.32;10.05;;;18.60;99.90;;;;;;4987766;28;20570;-76
2023/09/08 01:25:19;;;;;;;11.38;10.07;;;18.60;99.90;;;;;;4977714;28;20072;-76
2023/09/08 01:27:57;;;;;;;11.55;10.18;;;18.50;99.90;;;;;;4986352;28;20405;-76
2023/09/08 01:30:24;;;;;;;14.48;9.95;;;18.50;99.90;;;;;;4990235;28;20387;-76
2023/09/08 01:32:51;;;;;;;12.52;10.13;;;18.50;99.90;;;;;;4989295;28;20046;-76
2023/09/08 01:35:17;;;;;;;12.60;10.18;;;18.40;99.90;;;;;;4989222;28;20510;-76
2023/09/08 01:37:45;;;;;;;12.20;10.60;;;18.40;99.90;;;;;;4990205;28;20041;-76
2023/09/08 01:40:11;;;;;;;14.07;10.73;;;18.40;99.90;;;;;;4991867;28;20043;-76
2023/09/08 01:42:40;;;;;;;13.90;10.43;;;18.40;99.90;;;;;;4988348;28;20031;-76
2023/09/08 01:45:07;;;;;;;15.10;10.70;;;18.40;99.90;;;;;;4972295;28;20045;-76
2023/09/08 01:47:33;;;;;;;13.43;10.20;;;18.40;99.90;;;;;;4989477;28;20069;-76
2023/09/08 01:49:59;;;;;;;12.02;10.75;;;18.40;99.90;;;;;;4989742;28;20045;-76
2023/09/08 01:52:25;;;;;;;12.15;10.82;;;18.30;99.90;;;;;;4986540;28;20121;-76
2023/09/08 01:54:51;;;;;;;14.30;10.55;;;18.30;99.90;;;;;;4988908;28;20170;-76
2023/09/08 01:57:17;;;;;;;14.77;10.63;;;18.30;99.90;;;;;;4987846;28;20045;-76
2023/09/08 01:59:44;;;;;;;11.90;10.30;;;18.30;99.90;;;;;;4989591;28;20058;-76
2023/09/08 02:02:10;;;;;;;13.10;10.02;;;18.20;99.90;;;;;;4988104;28;20110;-76
2023/09/08 02:04:36;;;;;;;13.70;10.45;;;18.20;99.90;;;;;;4989649;28;20062;-76
2023/09/08 02:07:03;;;;;;;14.23;11.13;;;18.20;99.90;;;;;;4987572;28;20635;-76
2023/09/08 02:09:36;;;;;;;14.55;11.52;;;18.20;99.90;;;;;;4982726;28;20034;-76
2023/09/08 02:12:03;;;;;;;11.48;10.10;;;18.20;99.90;;;;;;4990105;28;20052;-76
2023/09/08 02:14:28;;;;;;;14.18;10.48;;;18.20;99.90;;;;;;4988581;28;20046;-76
2023/09/08 02:16:55;;;;;;;14.43;9.80;;;18.10;99.90;;;;;;4989298;28;20039;-76
2023/09/08 02:19:20;;;;;;;13.43;10.30;;;18.10;99.90;;;;;;4987715;28;20513;-76
2023/09/08 02:21:46;;;;;;;13.27;10.38;;;18.10;99.90;;;;;;4988657;28;20045;-76
2023/09/08 02:24:12;;;;;;;14.05;10.23;;;18.10;99.90;;;;;;4988486;28;20125;-76
2023/09/08 02:26:41;;;;;;;12.00;9.93;;;18.10;99.90;;;;;;4988308;28;20104;-75
2023/09/08 02:29:07;;;;;;;11.45;10.25;;;18.10;99.90;;;;;;4988895;28;20043;-76
2023/09/08 02:31:33;;;;;;;12.75;10.18;;;18.00;99.90;;;;;;4988658;28;20034;-76
2023/09/08 02:33:59;;;;;;;12.90;9.30;;;18.00;99.90;;;;;;4988325;28;20127;-75
2023/09/08 02:36:26;;;;;;;11.57;9.73;;;18.00;99.90;;;;;;4988277;28;20034;-76
2023/09/08 02:38:52;;;;;;;13.35;9.65;;;17.90;99.90;;;;;;4988169;28;20026;-76
2023/09/08 02:41:18;;;;;;;11.73;9.45;;;17.90;99.90;;;;;;4988286;28;20043;-76
2023/09/08 02:43:43;;;;;;;11.55;9.30;;;17.90;99.90;;;;;;4990107;28;20498;-76
2023/09/08 02:46:09;;;;;;;10.70;9.55;;;17.90;99.90;;;;;;4988481;28;20460;-76
2023/09/08 02:48:35;;;;;;;13.02;9.32;;;17.90;99.90;;;;;;4989721;28;20088;-76
2023/09/08 02:51:00;;;;;;;12.10;10.13;;;17.90;99.90;;;;;;4987730;28;20070;-76
2023/09/08 02:53:28;;;;;;;14.13;9.95;;;17.90;99.90;;;;;;4989186;28;20501;-76
2023/09/08 02:55:54;;;;;;;11.70;9.43;;;17.90;99.90;;;;;;4988016;28;20121;-76
2023/09/08 02:58:20;;;;;;;11.13;9.32;;;17.80;99.90;;;;;;4987512;28;20120;-76
2023/09/08 03:00:46;;;;;;;11.27;9.43;;;17.80;99.90;;;;;;4988455;28;20303;-76
2023/09/08 03:03:11;;;;;;;10.65;9.32;;;17.80;99.90;;;;;;4988086;28;20049;-76
2023/09/08 03:05:37;;;;;;;12.27;9.82;;;17.70;99.90;;;;;;4988185;28;20046;-76
2023/09/08 03:08:03;;;;;;;12.73;9.77;;;17.70;99.90;;;;;;4972916;28;20417;-76
2023/09/08 03:10:28;;;;;;;11.13;9.57;;;17.70;99.90;;;;;;4987425;28;20246;-76
2023/09/08 03:12:54;;;;;;;11.00;9.40;;;17.70;99.90;;;;;;4986443;28;20398;-76
2023/09/08 03:15:20;;;;;;;11.18;9.30;;;17.70;99.90;;;;;;4989299;28;20065;-76
2023/09/08 03:17:46;;;;;;;12.00;9.20;;;17.60;99.90;;;;;;4989066;28;20038;-76
2023/09/08 03:20:13;;;;;;;12.13;9.93;;;17.60;99.90;;;;;;4972007;28;20094;-76
2023/09/08 03:22:39;;;;;;;11.60;9.50;;;17.60;99.90;;;;;;4991221;28;20215;-76
2023/09/08 03:25:05;;;;;;;14.38;9.50;;;17.60;99.90;;;;;;4991757;28;20535;-76
2023/09/08 03:27:31;;;;;;;11.23;9.77;;;17.50;99.90;;;;;;4991228;28;20076;-76
2023/09/08 03:29:56;;;;;;;12.52;10.20;;;17.50;99.90;;;;;;4991663;28;20510;-76
2023/09/08 03:32:22;;;;;;;11.93;10.18;;;17.50;99.90;;;;;;4991395;28;20050;-76
2023/09/08 03:34:47;;;;;;;11.23;10.10;;;17.50;99.90;;;;;;4990891;28;20038;-76
2023/09/08 03:37:15;;;;;;;11.63;9.73;;;17.50;99.90;;;;;;4991056;28;20042;-76
2023/09/08 03:39:40;;;;;;;12.57;10.00;;;17.40;99.90;;;;;;4991353;28;20046;-76
2023/09/08 03:42:06;;;;;;;12.23;9.73;;;17.40;99.90;;;;;;4991540;28;20418;-76
2023/09/08 03:44:31;;;;;;;12.18;9.75;;;17.40;99.90;;;;;;4991849;28;20422;-76
2023/09/08 03:46:57;;;;;;;11.90;9.85;;;17.30;99.90;;;;;;4991132;28;20039;-76
2023/09/08 03:49:22;;;;;;;13.30;10.02;;;17.30;99.90;;;;;;4991548;28;20058;-76
2023/09/08 03:51:48;;;;;;;11.75;9.48;;;17.30;99.90;;;;;;4991014;28;20038;-76
2023/09/08 03:54:13;;;;;;;13.13;10.18;;;17.30;99.90;;;;;;4984752;28;20135;-75
2023/09/08 03:56:39;;;;;;;11.38;10.10;;;17.30;99.90;;;;;;4990251;28;20096;-76
2023/09/08 03:59:04;;;;;;;12.07;9.68;;;17.20;99.90;;;;;;4990890;28;20125;-76
2023/09/08 04:01:30;;;;;;;11.55;10.27;;;17.20;99.90;;;;;;4991903;28;20423;-76
2023/09/08 04:03:55;;;;;;;11.55;10.00;;;17.20;99.90;;;;;;4989969;28;20162;-76
2023/09/08 04:06:21;;;;;;;11.07;9.48;;;17.20;99.90;;;;;;4988345;28;20046;-76
2023/09/08 04:08:47;;;;;;;12.23;9.38;;;17.20;99.90;;;;;;4990242;28;20058;-76
2023/09/08 04:11:12;;;;;;;12.65;10.10;;;17.20;99.90;;;;;;4990891;28;20502;-76
2023/09/08 04:13:38;;;;;;;13.05;9.43;;;17.20;99.90;;;;;;4991036;28;20041;-76
2023/09/08 04:16:03;;;;;;;12.80;10.50;;;17.10;99.90;;;;;;4991377;28;20461;-76
2023/09/08 04:18:29;;;;;;;11.10;9.45;;;17.10;99.90;;;;;;4990808;28;20035;-76
2023/09/08 04:20:54;;;;;;;13.88;10.05;;;17.10;99.90;;;;;;4991288;28;20051;-76
2023/09/08 04:23:20;;;;;;;12.23;10.65;;;17.10;99.90;;;;;;4988549;28;20038;-76
2023/09/08 04:25:46;;;;;;;13.18;10.20;;;17.00;99.90;;;;;;4989475;28;20043;-76
2023/09/08 04:28:11;;;;;;;13.02;9.70;;;17.00;99.90;;;;;;4974693;28;20291;-76
2023/09/08 04:30:36;;;;;;;13.88;10.05;;;17.00;99.90;;;;;;4991800;28;20383;-76
2023/09/08 04:33:02;;;;;;;13.57;10.15;;;17.00;99.90;;;;;;4988977;28;20050;-76
2023/09/08 04:35:28;;;;;;;10.75;9.65;;;16.90;99.90;;;;;;4983503;28;20042;-76
2023/09/08 04:37:53;;;;;;;10.95;9.75;;;17.00;99.90;;;;;;4989743;28;20049;-76
2023/09/08 04:40:19;;;;;;;15.20;10.48;;;16.90;99.90;;;;;;4984920;28;20038;-76
2023/09/08 04:42:45;;;;;;;10.90;9.65;;;16.90;99.90;;;;;;4990718;28;20050;-76
2023/09/08 04:45:10;;;;;;;12.77;10.10;;;16.90;99.90;;;;;;4992732;28;20038;-76
2023/09/08 04:47:37;;;;;;;12.25;10.18;;;16.80;99.90;;;;;;4987850;28;20053;-76
2023/09/08 04:50:03;;;;;;;11.63;9.60;;;16.80;99.90;;;;;;4991341;28;20353;-76
2023/09/08 04:52:29;;;;;;;12.20;10.23;;;16.80;99.90;;;;;;4991398;28;20390;-76
2023/09/08 04:54:54;;;;;;;13.75;11.13;;;16.80;99.90;;;;;;4988603;28;20069;-76
2023/09/08 04:57:20;;;;;;;13.38;10.50;;;16.80;99.90;;;;;;4999258;28;20404;-76
2023/09/08 04:59:46;;;;;;;12.60;10.93;;;16.80;99.90;;;;;;4989109;28;20536;-76
2023/09/08 05:02:11;;;;;;;12.73;10.35;;;16.80;99.90;;;;;;4979811;28;20038;-75
2023/09/08 05:04:37;;;;;;;11.80;9.63;;;16.70;99.90;;;;;;4996141;28;20117;-76
2023/09/08 05:07:02;;;;;;;11.77;9.90;;;16.70;99.90;;;;;;4991350;28;20042;-76
2023/09/08 05:09:28;;;;;;;15.55;10.27;;;16.70;99.90;;;;;;4991254;28;20356;-76
2023/09/08 05:11:53;;;;;;;16.58;9.82;;;16.70;99.90;;;;;;4989711;28;20048;-76
2023/09/08 05:14:19;;;;;;;13.15;10.38;;;16.70;99.90;;;;;;4991802;28;20100;-76
2023/09/08 05:16:46;;;;;;;13.43;10.18;;;16.70;99.90;;;;;;4972655;28;20454;-75
2023/09/08 05:19:15;;;;;;;13.00;10.88;;;16.70;99.90;;;;;;4990416;28;20047;-76
2023/09/08 05:21:41;;;;;;;12.63;10.05;;;16.70;99.90;;;;;;4985677;28;20509;-77
2023/09/08 05:24:07;;;;;;;11.80;10.55;;;16.70;99.90;;;;;;4977443;28;20089;-76
2023/09/08 05:26:36;;;;;;;12.50;10.20;;;16.70;99.90;;;;;;4989877;28;20494;-76
2023/09/08 05:29:01;;;;;;;14.88;10.90;;;16.80;99.90;;;;;;4974145;28;20074;-74
2023/09/08 05:31:27;;;;;;;12.45;10.38;;;16.80;99.90;;;;;;4986448;28;20076;-76
2023/09/08 05:33:52;;;;;;;12.95;10.18;;;16.90;99.90;;;;;;4988110;28;20107;-76
2023/09/08 05:36:18;;;;;;;13.15;9.90;;;16.90;99.90;;;;;;4987660;28;20042;-76
2023/09/08 05:38:43;;;;;;;11.65;10.32;;;17.00;99.90;;;;;;4971630;28;20088;-76
2023/09/08 05:41:09;;;;;;;13.52;9.93;;;17.00;99.90;;;;;;4988190;28;20529;-76
2023/09/08 05:43:35;;;;;;;11.70;10.20;;;17.10;99.90;;;;;;4990128;28;20034;-76
2023/09/08 05:46:00;;;;;;;15.15;10.10;;;17.10;99.90;;;;;;4990709;28;20042;-77
2023/09/08 05:48:26;;;;;;;11.20;9.80;;;17.20;99.90;;;;;;4991010;28;20038;-76
2023/09/08 05:50:51;;;;;;;14.25;10.43;;;17.20;99.90;;;;;;4989912;28;20038;-76
2023/09/08 05:53:17;;;;;;;12.50;9.75;;;17.30;99.90;;;;;;4989865;28;20034;-77
2023/09/08 05:55:42;;;;;;;11.85;10.02;;;17.40;99.90;;;;;;4989439;28;20535;-77
2023/09/08 05:58:08;;;;;;;11.15;10.02;;;17.50;99.90;;;;;;4988082;28;20049;-76
2023/09/08 06:00:33;;;;;;;10.98;9.13;;;17.50;99.90;;;;;;4989202;28;20054;-76
2023/09/08 06:02:59;;;;;;;13.23;9.82;;;17.60;99.90;;;;;;4989293;28;20031;-78
2023/09/08 06:05:24;;;;;;;11.57;9.77;;;17.70;99.90;;;;;;4991190;28;20034;-78
2023/09/08 06:07:50;;;;;;;11.35;9.75;;;17.80;99.90;;;;;;4990504;28;20045;-78
2023/09/08 06:10:15;;;;;;;12.18;9.68;;;17.90;99.90;;;;;;4974617;28;20090;-73
2023/09/08 06:12:43;;;;;;;12.82;9.70;;;18.00;99.90;;;;;;4991039;28;20413;-73
2023/09/08 06:15:08;;;;;;;12.00;9.45;;;18.00;99.90;;;;;;4987410;28;20417;-75
2023/09/08 06:17:34;;;;;;;10.93;9.45;;;18.10;99.90;;;;;;4989306;28;20046;-76
2023/09/08 06:19:59;;;;;;;11.13;9.35;;;18.20;99.90;;;;;;4991023;28;20133;-73
2023/09/08 06:22:25;;;;;;;12.50;9.75;;;18.30;99.90;;;;;;4991153;28;20047;-76
2023/09/08 06:24:51;;;;;;;10.82;9.70;;;18.40;99.90;;;;;;4975278;28;20045;-78
2023/09/08 06:27:16;;;;;;;12.15;9.60;;;18.40;99.90;;;;;;4990191;28;20089;-79
2023/09/08 06:29:43;;;;;;;11.32;9.32;;;18.50;99.90;;;;;;4990629;28;20042;-80
2023/09/08 06:32:10;;;;;;;10.82;9.45;;;18.50;99.90;;;;;;4991947;28;20050;-80
2023/09/08 06:34:35;;;;;;;12.43;9.48;;;18.60;99.90;;;;;;4988195;28;20409;-76
2023/09/08 06:37:01;;;;;;;10.75;9.60;;;18.70;99.90;;;;;;4989346;28;20050;-78
2023/09/08 06:39:27;;;;;;;11.40;8.93;;;18.80;99.90;;;;;;4989371;28;20509;-77
2023/09/08 06:41:53;;;;;;;12.55;9.13;;;18.80;99.90;;;;;;4986301;28;20092;-77
2023/09/08 06:44:23;;;;;;;11.07;8.70;;;18.90;99.90;;;;;;4990261;28;20041;-78
2023/09/08 06:46:48;;;;;;;10.15;9.15;;;19.00;99.90;;;;;;4986911;28;20034;-77
2023/09/08 06:49:14;;;;;;;10.07;9.05;;;19.10;99.90;;;;;;4990134;28;20030;-78
2023/09/08 06:51:39;;;;;;;10.73;8.70;;;19.20;99.90;;;;;;4988970;28;20049;-78
2023/09/08 06:54:05;;;;;;;10.10;8.85;;;19.40;99.90;;;;;;4990072;28;20168;-79
2023/09/08 06:56:31;;;;;;;10.60;8.90;;;19.40;99.90;;;;;;4990308;28;20038;-78
2023/09/08 06:59:00;;;;;;;11.20;8.60;;;19.50;99.90;;;;;;4994023;28;20045;-77
2023/09/08 07:01:25;;;;;;;15.60;8.23;;;19.70;99.90;;;;;;4992534;28;20062;-78
2023/09/08 07:03:51;;;;;;;14.18;8.52;;;19.90;99.90;;;;;;4993041;28;20652;-77
2023/09/08 07:06:16;;;;;;;12.40;8.73;;;20.00;99.90;;;;;;4992130;28;20045;-78
2023/09/08 07:08:42;;;;;;;10.98;8.35;;;20.20;99.90;;;;;;4992281;28;20038;-78
2023/09/08 07:11:08;;;;;;;8.73;7.82;;;20.30;99.90;;;;;;4990515;28;20038;-77
2023/09/08 07:13:34;;;;;;;9.82;7.90;;;20.50;99.90;;;;;;5006260;28;20060;-77
2023/09/08 07:15:59;;;;;;;13.18;8.55;;;20.60;99.90;;;;;;4989421;28;20046;-78
2023/09/08 07:18:25;;;;;;;10.00;8.07;;;20.80;99.90;;;;;;4989824;28;20034;-78
2023/09/08 07:20:51;;;;;;;12.18;7.88;;;20.90;99.90;;;;;;4988561;28;20039;-78
2023/09/08 07:23:18;;;;;;;9.90;7.97;;;21.00;99.90;;;;;;4991743;28;20219;-78
2023/09/08 07:25:50;;;;;;;10.48;8.35;;;21.30;99.90;;;;;;4991616;28;20113;-78
2023/09/08 07:28:16;;;;;;;11.27;8.23;;;21.30;99.90;;;;;;4992124;28;20057;-78
2023/09/08 07:30:42;;;;;;;9.60;7.78;;;21.40;99.90;;;;;;4992692;28;20134;-77
2023/09/08 07:33:08;;;;;;;11.38;7.88;;;21.60;99.90;;;;;;4989922;28;20042;-79
2023/09/08 07:35:37;;;;;;;8.68;7.25;;;21.70;99.90;;;;;;4987661;28;20415;-79
2023/09/08 07:38:02;;;;;;;11.50;7.78;;;21.90;99.90;;;;;;4976530;28;20073;-78
2023/09/08 07:40:28;;;;;;;10.93;7.07;;;22.00;99.90;;;;;;4986602;28;20494;-78
2023/09/08 07:42:53;;;;;;;9.38;6.82;;;22.10;99.90;;;;;;4986855;28;20056;-78
2023/09/08 07:45:19;;;;;;;8.35;6.90;;;22.30;99.90;;;;;;4991329;28;20037;-78
2023/09/08 07:47:45;;;;;;;12.75;7.25;;;22.40;99.90;;;;;;4992311;28;20497;-78
2023/09/08 07:50:20;;;;;;;9.60;6.55;;;22.50;99.90;;;;;;4972326;28;20605;-78
2023/09/08 07:52:46;;;;;;;7.70;6.60;;;22.60;99.90;;;;;;4990783;28;20199;-77
2023/09/08 07:55:11;;;;;;;7.88;7.05;;;22.70;99.90;;;;;;4974191;28;20130;-80
2023/09/08 07:57:37;;;;;;;9.73;6.80;;;22.80;99.90;;;;;;4989604;28;20129;-79
2023/09/08 08:00:03;;;;;;;8.32;6.93;;;22.90;99.90;;;;;;4987294;28;20088;-77
2023/09/08 08:02:30;;;;;;;8.27;6.90;;;22.90;99.90;;;;;;4986430;28;20488;-77
2023/09/08 08:04:55;;;;;;;12.60;6.65;;;23.00;99.90;;;;;;4987200;28;20043;-79
2023/09/08 08:07:21;;;;;;;15.05;7.22;;;23.00;99.90;;;;;;4986750;28;20090;-78
2023/09/08 08:09:46;;;;;;;8.60;6.50;;;23.20;99.90;;;;;;4988776;28;20393;-78
2023/09/08 08:12:13;;;;;;;11.90;6.88;;;23.30;99.90;;;;;;4989562;28;20050;-78
2023/09/08 08:14:39;;;;;;;9.18;6.90;;;23.50;99.90;;;;;;4974739;28;20054;-78
2023/09/08 08:17:04;;;;;;;6.95;6.22;;;23.50;99.90;;;;;;4989931;28;20038;-78
2023/09/08 08:19:30;;;;;;;7.38;6.57;;;23.50;99.90;;;;;;4989424;28;20109;-77
2023/09/08 08:21:57;;;;;;;8.43;6.63;;;23.60;99.90;;;;;;4990555;28;20042;-77
2023/09/08 08:24:23;;;;;;;7.97;7.03;;;23.60;99.90;;;;;;4992332;28;20413;-79
2023/09/08 08:26:48;;;;;;;8.55;6.55;;;23.70;99.90;;;;;;4988925;28;20030;-78
2023/09/08 08:29:14;;;;;;;10.77;6.70;;;23.90;99.90;;;;;;4988460;28;20112;-77
2023/09/08 08:31:39;;;;;;;7.53;6.43;;;23.90;99.90;;;;;;4987081;28;20744;-77
2023/09/08 08:34:05;;;;;;;6.85;6.10;;;24.00;99.90;;;;;;4989975;28;20031;-78
2023/09/08 08:36:30;;;;;;;8.50;6.32;;;24.10;99.90;;;;;;4990454;28;20080;-77
2023/09/08 08:38:56;;;;;;;7.07;6.03;;;24.10;99.90;;;;;;4984058;28;20093;-77
2023/09/08 08:41:22;;;;;;;9.55;6.20;;;24.10;99.90;;;;;;4990079;28;20096;-78
2023/09/08 08:43:50;;;;;;;11.57;5.97;;;24.20;99.90;;;;;;4989720;28;20437;-77
2023/09/08 08:46:17;;;;;;;7.35;5.50;;;24.30;99.90;;;;;;4988081;28;20057;-77
2023/09/08 08:48:44;;;;;;;7.20;5.55;;;24.40;99.90;;;;;;4990764;28;20038;-77
2023/09/08 08:51:11;;;;;;;13.85;5.93;;;24.50;99.90;;;;;;5003909;28;20125;-79
2023/09/08 08:53:39;;;;;;;9.57;5.22;;;24.60;99.90;;;;;;5004320;28;20042;-78
2023/09/08 08:56:08;;;;;;;12.88;5.90;;;24.70;99.90;;;;;;4968411;28;20112;-77
2023/09/08 08:58:35;;;;;;;6.85;4.88;;;24.70;99.90;;;;;;4987298;28;20042;-77
2023/09/08 09:01:01;;;;;;;5.57;4.93;;;24.70;99.90;;;;;;4990045;28;20121;-78
2023/09/08 09:03:28;;;;;;;8.05;4.85;;;24.80;99.90;;;;;;4972915;28;20042;-77
2023/09/08 09:05:53;;;;;;;7.93;5.13;;;24.80;99.90;;;;;;4986374;28;20035;-77
2023/09/08 09:08:19;;;;;;;8.52;5.25;;;24.90;99.90;;;;;;4984706;28;20041;-79
2023/09/08 09:10:45;;;;;;;8.38;5.43;;;24.90;99.90;;;;;;4992216;28;20038;-74
2023/09/08 09:13:10;;;;;;;7.70;4.65;;;25.00;99.90;;;;;;4988479;28;20065;-73
2023/09/08 09:15:36;;;;;;;7.20;5.00;;;25.00;99.90;;;;;;4990372;28;20045;-72
2023/09/08 09:18:04;;;;;;;10.38;5.13;;;25.00;99.90;;;;;;5004081;28;20130;-73
2023/09/08 09:20:29;;;;;;;8.30;4.90;;;25.10;99.90;;;;;;4984987;28;20038;-72
2023/09/08 09:22:55;;;;;;;7.63;4.80;;;25.10;99.90;;;;;;4993937;28;20154;-72
2023/09/08 09:25:22;;;;;;;9.90;4.82;;;25.10;99.90;;;;;;4990294;28;20041;-73
2023/09/08 09:28:06;;;;;;;8.35;4.57;;;25.20;99.90;;;;;;4983328;28;20063;-73
2023/09/08 09:30:54;;;;;;;9.73;4.90;;;25.20;99.90;;;;;;4985412;28;20045;-74
2023/09/08 09:33:20;;;;;;;6.35;4.95;;;25.20;99.90;;;;;;4987109;28;20034;-73
2023/09/08 09:35:51;;;;;;;9.63;4.75;;;25.20;99.90;;;;;;4989384;28;20045;-74
2023/09/08 09:38:21;;;;;;;4.97;4.43;;;25.30;99.90;;;;;;4986580;28;20089;-73
2023/09/08 09:40:47;;;;;;;6.80;4.97;;;25.30;99.90;;;;;;4987197;28;20124;-73
2023/09/08 09:43:14;;;;;;;7.05;4.68;;;25.30;99.90;;;;;;4984639;28;20069;-74
2023/09/08 09:45:42;;;;;;;24.40;4.85;;;25.30;99.90;;;;;;4989277;28;20494;-73
2023/09/08 09:48:09;;;;;;;7.35;4.88;;;25.40;99.90;;;;;;4988532;28;20050;-75
2023/09/08 09:50:36;;;;;;;6.40;5.03;;;25.40;99.90;;;;;;4989555;28;20042;-73
2023/09/08 09:53:08;;;;;;;6.22;4.70;;;25.50;99.90;;;;;;4989839;28;20069;-73
2023/09/08 09:55:35;;;;;;;9.50;4.68;;;25.50;99.90;;;;;;4988978;28;20093;-72
2023/09/08 09:58:03;;;;;;;8.60;4.82;;;25.50;99.90;;;;;;4990220;28;20066;-72
2023/09/08 10:00:30;;;;;;;6.70;4.40;;;25.60;99.90;;;;;;4989428;28;20045;-72
2023/09/08 10:02:56;;;;;;;5.53;4.45;;;25.70;99.90;;;;;;4991467;28;20038;-72
2023/09/08 10:05:23;;;;;;;9.25;5.45;;;25.70;99.90;;;;;;4988468;28;20110;-74
2023/09/08 10:07:50;;;;;;;5.45;4.45;;;25.90;99.90;;;;;;4989476;28;20030;-72
2023/09/08 10:10:16;;;;;;;7.93;4.97;;;26.00;99.90;;;;;;4988994;28;20486;-72
2023/09/08 10:12:51;;;;;;;8.40;4.90;;;26.00;99.90;;;;;;4989492;28;20480;-73
2023/09/08 10:15:21;;;;;;;6.07;4.47;;;26.00;99.90;;;;;;4989331;28;20137;-72
2023/09/08 10:17:51;;;;;;;10.95;4.88;;;26.10;99.90;;;;;;4989557;28;20529;-72
2023/09/08 10:20:21;;;;;;;8.68;4.80;;;26.10;99.90;;;;;;4989419;28;20409;-72
2023/09/08 10:22:54;;;;;;;12.65;5.43;;;26.20;99.90;;;;;;4990253;28;20038;-72
2023/09/08 10:25:21;;;;;;;6.68;4.75;;;26.20;99.90;;;;;;4990824;28;20034;-72
2023/09/08 10:27:47;;;;;;;9.70;5.03;;;26.30;99.90;;;;;;4990436;28;20050;-72
2023/09/08 10:30:14;;;;;;;7.18;4.55;;;26.50;99.90;;;;;;4989883;28;20038;-72
2023/09/08 10:32:41;;;;;;;6.30;4.22;;;26.50;99.90;;;;;;4994906;28;20054;-71
2023/09/08 10:35:08;;;;;;;6.43;4.45;;;26.60;99.90;;;;;;4991680;28;20038;-72
2023/09/08 10:37:33;;;;;;;5.13;4.30;;;26.70;99.90;;;;;;4991861;28;20042;-72
2023/09/08 10:40:20;;;;;;;8.88;4.72;;;26.80;99.90;;;;;;4974625;28;20525;-73
2023/09/08 10:42:46;;;;;;;5.38;4.60;;;26.90;99.90;;;;;;4987494;28;20463;-72
2023/09/08 10:45:17;;;;;;;7.00;4.78;;;27.00;99.90;;;;;;4990392;28;20116;-72
2023/09/08 10:47:45;;;;;;;7.60;4.60;;;27.10;99.90;;;;;;4992942;28;20427;-74
2023/09/08 10:50:18;;;;;;;7.85;4.22;;;27.30;99.90;;;;;;4990214;28;20054;-74
2023/09/08 10:52:44;;;;;;;16.42;5.35;;;27.40;99.90;;;;;;4992905;28;20068;-72
2023/09/08 10:55:12;;;;;;;4.88;4.15;;;27.40;99.90;;;;;;4991604;28;20042;-72
2023/09/08 10:57:44;;;;;;;7.57;4.38;;;27.50;99.90;;;;;;4991504;28;20042;-72
2023/09/08 11:00:11;;;;;;;5.78;4.15;;;27.50;99.90;;;;;;4992302;28;20466;-72
2023/09/08 11:02:39;;;;;;;6.35;4.60;;;27.60;99.90;;;;;;4993233;28;20113;-73
2023/09/08 11:05:09;;;;;;;6.18;4.05;;;27.80;99.90;;;;;;4993840;28;20042;-72
2023/09/08 11:07:40;;;;;;;4.85;4.03;;;27.90;99.90;;;;;;4993552;28;20030;-73
2023/09/08 11:10:07;;;;;;;6.20;4.50;;;28.00;99.90;;;;;;4992947;28;20045;-72
2023/09/08 11:12:32;;;;;;;7.13;4.10;;;28.10;99.90;;;;;;4986020;28;20079;-73
2023/09/08 11:15:04;;;;;;;6.43;4.10;;;28.20;99.90;;;;;;4991369;28;20082;-72
2023/09/08 11:17:31;;;;;;;5.13;4.10;;;28.30;99.90;;;;;;4992399;28;20042;-71
2023/09/08 11:19:57;;;;;;;6.53;3.85;;;28.40;99.90;;;;;;4991631;28;20042;-72
2023/09/08 11:22:26;;;;;;;5.82;3.95;;;28.50;99.90;;;;;;4992679;28;20057;-72
2023/09/08 11:24:56;;;;;;;10.10;4.57;;;28.70;99.90;;;;;;4992860;28;20494;-72
2023/09/08 11:27:23;;;;;;;7.72;4.28;;;28.80;99.90;;;;;;4986905;28;20078;-72
2023/09/08 11:29:49;;;;;;;8.23;4.53;;;28.90;99.90;;;;;;4994668;28;20398;-72
2023/09/08 11:32:15;;;;;;;6.25;4.35;;;29.00;99.90;;;;;;4993390;28;20046;-72
2023/09/08 11:34:41;;;;;;;6.65;4.20;;;29.10;99.90;;;;;;4991808;28;20053;-72
2023/09/08 11:37:10;;;;;;;7.53;4.38;;;29.20;99.90;;;;;;4993967;28;20054;-72
2023/09/08 11:39:37;;;;;;;5.80;4.18;;;29.30;99.90;;;;;;4993217;28;20508;-73
2023/09/08 11:42:03;;;;;;;6.50;4.30;;;29.40;99.90;;;;;;4991731;28;20717;-72
2023/09/08 11:44:29;;;;;;;6.95;4.00;;;29.60;99.90;;;;;;4993689;28;20105;-72
2023/09/08 11:46:54;;;;;;;4.80;3.70;;;29.70;99.90;;;;;;4994320;28;20105;-72
2023/09/08 11:49:22;;;;;;;5.05;3.90;;;29.70;99.90;;;;;;4992119;28;20042;-73
2023/09/08 11:51:48;;;;;;;9.73;4.00;;;29.90;99.90;;;;;;4991525;28;20398;-73
2023/09/08 11:54:14;;;;;;;8.77;3.90;;;30.00;99.90;;;;;;4977592;28;20097;-73
2023/09/08 11:56:40;;;;;;;7.13;4.22;;;30.10;99.90;;;;;;4979212;28;20046;-73
2023/09/08 11:59:07;;;;;;;7.45;4.03;;;30.30;99.90;;;;;;4988243;28;20078;-74
2023/09/08 12:01:32;;;;;;;6.50;3.97;;;30.40;99.90;;;;;;4983580;28;20042;-74
2023/09/08 12:03:58;;;;;;;5.85;3.53;;;30.60;99.90;;;;;;4987848;28;20045;-74
2023/09/08 12:06:28;;;;;;;6.40;3.80;;;30.70;99.90;;;;;;4989536;28;20042;-73
2023/09/08 12:08:55;;;;;;;5.20;3.78;;;30.80;99.90;;;;;;4991196;28;20038;-73
2023/09/08 12:11:20;;;;;;;4.22;3.75;;;31.00;99.90;;;;;;4989585;28;20034;-74
2023/09/08 12:13:46;;;;;;;8.52;4.10;;;31.00;99.90;;;;;;4990952;28;20088;-74
2023/09/08 12:16:24;;;;;;;5.60;3.90;;;31.10;99.90;;;;;;4992738;28;20506;-72
2023/09/08 12:18:50;;;;;;;4.65;3.50;;;31.30;99.90;;;;;;4992229;28;20049;-75
2023/09/08 12:21:16;;;;;;;9.50;4.10;;;31.30;99.90;;;;;;4991916;28;20056;-74
2023/09/08 12:23:49;;;;;;;6.47;3.70;;;31.40;99.90;;;;;;4991697;28;20035;-73
2023/09/08 12:26:16;;;;;;;;;;;31.50;99.00;;;;;;4992711;28;20042;-73
2023/09/08 12:28:42;;;;;;;4.93;3.67;;;31.50;99.10;;;;;;4992650;28;20408;-73
2023/09/08 12:31:09;;;;;;;4.93;3.40;;;31.50;99.30;;;;;;4992368;28;20133;-73
2023/09/08 12:33:35;;;;;;;7.40;3.80;;;31.60;99.20;;;;;;4992582;28;20413;-73
2023/09/08 12:36:16;;;;;;;5.20;3.58;;;31.70;98.80;;;;;;4991947;28;20046;-75